Latest Coastal Weather Observations for Cato Island

IDQ60701

Issued at 7:21 am EST Monday 2 May 2016 (issued every 10 minutes, with the page automatically refreshed every 10 minutes)

About coastal observations | Map of coastal stations | Coastal observations for QLD | Marine services | Other Formats
Station Details ID: 200601 Name: CATO ISLAND Lat: -23.25 Lon: 155.54 Height: 6.3 m
Data from the previous 72 hours. | See also: Recent months for locations in Queensland
Date/Time
EST
Temp

°C
Wind Pressure Rain
since 9am
mm
Weather Cloud Vis
km
Sea
Height
m
Swell
Dir
 
Speed
knots
Gust
knots
hPa Trend Height
m
Period
s
Dir
02/07:00am 25.2 NE 9 11 1016.0 - - - - - - - - -
02/06:30am 25.0 NE 9 11 1015.7 - - - - - - - - -
02/06:00am 24.8 NE 10 11 1015.1 - - - - - - - - -
02/05:30am 24.9 NE 10 12 1014.8 - - - - - - - - -
02/05:00am 24.9 CALM 0 3 1014.7 - - - - - - - - -
02/04:30am 24.8 CALM 0 3 1014.7 - - - - - - - - -
02/04:00am 24.8 NE 1 3 1014.4 - - - - - - - - -
02/03:30am 24.7 CALM 0 2 1014.5 - - - - - - - - -
02/03:00am 24.9 NE 1 3 1014.4 - - - - - - - - -
02/02:30am 24.8 NE 1 3 1014.4 - - - - - - - - -
02/02:00am 24.6 NE 11 14 1014.7 - - - - - - - - -
02/01:30am 24.4 N 1 3 1015.0 - - - - - - - - -
02/01:00am 24.5 CALM 0 2 1015.4 - - - - - - - - -
02/12:30am 24.6 CALM 0 1 1015.8 - - - - - - - - -
02/12:00am 24.8 CALM 0 3 1016.2 - - - - - - - - -
 
Date/Time
EST
Temp

°C
Wind Pressure Rain
since 9am
mm
Weather Cloud Vis
km
Sea
Height
m
Swell
Dir
 
Speed
knots
Gust
knots
hPa Trend Height
m
Period
s
Dir
01/11:30pm 24.6 CALM 0 1 1016.4 - - - - - - - - -
01/11:00pm 24.4 CALM 0 0 1016.8 - - - - - - - - -
01/10:30pm 24.4 CALM 0 2 1017.1 - - - - - - - - -
01/10:00pm 24.2 CALM 0 2 1017.1 - - - - - - - - -
01/09:30pm 23.9 NNE 4 6 1017.3 - - - - - - - - -
01/09:00pm 24.3 NNE 2 5 1017.7 - - - - - - - - -
01/08:30pm 24.1 NNE 4 5 1017.6 - - - - - - - - -
01/08:00pm 24.1 CALM 0 2 1017.8 - - - - - - - - -
01/07:30pm 24.3 NNE 1 3 1017.7 - - - - - - - - -
01/07:00pm 24.2 NNE 1 3 1017.4 - - - - - - - - -
01/06:30pm 25.4 CALM 0 2 1017.1 - - - - - - - - -
01/06:00pm 25.6 CALM 0 2 1016.7 - - - - - - - - -
01/05:30pm 25.7 NNE 1 7 1016.5 - - - - - - - - -
01/05:00pm 25.7 NNE 8 11 1016.2 - - - - - - - - -
01/04:30pm 25.9 NNE 10 12 1015.9 - - - - - - - - -
01/04:00pm 26.5 NNE 11 12 1015.7 - - - - - - - - -
01/03:30pm 26.6 NNE 10 12 1015.7 - - - - - - - - -
01/03:00pm 27.0 NNE 11 13 1015.4 - - - - - - - - -
01/02:30pm 27.4 NNE 13 15 1015.0 - - - - - - - - -
01/02:00pm 27.6 NNE 12 14 1015.2 - - - - - - - - -
01/01:30pm 27.6 NNE 13 15 1015.3 - - - - - - - - -
01/01:00pm 27.7 NNE 15 17 1015.5 - - - - - - - - -
01/12:30pm 27.8 NNE 14 17 1015.8 - - - - - - - - -
01/12:00pm 27.8 NNE 14 17 1016.4 - - - - - - - - -
01/11:30am 27.6 NNE 15 18 1016.9 - - - - - - - - -
01/11:00am 27.7 NNE 16 18 1017.3 - - - - - - - - -
01/10:30am 27.5 NNE 16 18 1017.7 - - - - - - - - -
01/10:00am 27.5 NNE 16 18 1018.1 - - - - - - - - -
01/09:30am 27.4 NNE 17 20 1018.3 - - - - - - - - -
01/09:00am 27.1 NNE 17 21 1018.0 - - - - - - - - -
01/08:30am 26.8 NNE 17 20 1018.0 - - - - - - - - -
01/08:00am 26.6 NNE 18 21 1018.0 - - - - - - - - -
01/07:30am 26.0 NE 19 22 1017.7 - - - - - - - - -
01/07:00am 26.1 NE 19 22 1017.5 - - - - - - - - -
01/06:30am 25.5 NE 19 22 1017.3 - - - - - - - - -
01/06:00am 25.5 NE 20 22 1017.1 - - - - - - - - -
01/05:30am 25.4 NE 19 22 1016.9 - - - - - - - - -
01/05:00am 25.5 NE 20 23 1016.5 - - - - - - - - -
01/04:30am 25.5 NE 20 23 1016.3 - - - - - - - - -
01/04:00am 25.5 NE 20 23 1016.2 - - - - - - - - -
01/03:30am 25.4 NE 21 24 1016.1 - - - - - - - - -
01/03:00am 25.3 ENE 20 23 1016.2 - - - - - - - - -
01/02:30am 25.0 ENE 18 21 1016.2 - - - - - - - - -
01/02:26am 24.9 ENE 17 21 1016.2 - - - - - - - - -
01/02:00am 23.2 SSW 8 11 1016.4 - - - - - - - - -
01/01:30am 23.0 SSW 10 13 1016.9 - - - - - - - - -
01/01:00am 22.9 WNW 7 8 1017.1 - - - - - - - - -
01/12:30am 23.0 WNW 7 8 1017.3 - - - - - - - - -
01/12:00am 22.7 WNW 6 7 1017.5 - - - - - - - - -
 
Date/Time
EST
Temp

°C
Wind Pressure Rain
since 9am
mm
Weather Cloud Vis
km
Sea
Height
m
Swell
Dir
 
Speed
knots
Gust
knots
hPa Trend Height
m
Period
s
Dir
30/11:30pm 22.4 WNW 5 6 1017.6 - - - - - - - - -
30/11:00pm 22.1 WNW 6 7 1017.8 - - - - - - - - -
30/10:30pm 22.3 WNW 4 6 1018.2 - - - - - - - - -
30/10:00pm 22.4 WNW 5 6 1018.2 - - - - - - - - -
30/09:30pm 22.3 WNW 2 6 1018.4 - - - - - - - - -
30/09:00pm 22.3 WNW 4 6 1018.3 - - - - - - - - -
30/08:30pm 22.3 WNW 1 4 1018.2 - - - - - - - - -
30/08:00pm 22.1 WNW 3 4 1018.0 - - - - - - - - -
30/07:30pm 21.9 WNW 4 7 1018.0 - - - - - - - - -
30/07:00pm 21.9 WNW 8 10 1017.9 - - - - - - - - -
30/06:30pm 21.8 W 9 11 1017.6 - - - - - - - - -
30/06:00pm 22.2 W 15 21 1017.2 - - - - - - - - -
30/05:30pm 22.4 WSW 16 19 1017.0 - - - - - - - - -
30/05:00pm 23.5 W 15 21 1016.4 - - - - - - - - -
30/04:30pm 23.7 S 13 16 1016.1 - - - - - - - - -
30/04:00pm 23.3 SW 10 16 1016.0 - - - - - - - - -
30/03:30pm 23.8 SE 10 13 1016.1 - - - - - - - - -
30/03:00pm 24.1 SE 14 16 1016.0 - - - - - - - - -
30/02:30pm 23.7 ESE 7 8 1016.2 - - - - - - - - -
30/02:00pm 24.0 S 8 11 1016.3 - - - - - - - - -
30/01:30pm 24.2 E 11 12 1016.3 - - - - - - - - -
30/01:00pm 23.9 N 9 12 1016.6 - - - - - - - - -
30/12:30pm 24.0 N 10 16 1016.9 - - - - - - - - -
30/12:00pm 24.6 NE 14 16 1017.1 - - - - - - - - -
30/11:30am 24.9 NE 18 21 1017.3 - - - - - - - - -
30/11:00am 25.2 ENE 18 20 1017.8 - - - - - - - - -
30/10:30am 25.8 ENE 17 19 1018.0 - - - - - - - - -
30/10:00am 25.1 ENE 10 13 1018.5 - - - - - - - - -
30/09:30am 24.8 NNE 8 10 1018.8 - - - - - - - - -
30/09:00am 25.0 NE 15 16 1018.7 - - - - - - - - -
30/08:30am 25.1 NNE 6 9 1018.6 - - - - - - - - -
30/08:00am 24.6 S 5 7 1018.4 - - - - - - - - -
30/07:30am 24.7 S 6 8 1018.2 - - - - - - - - -
30/07:00am 24.4 S 10 13 1017.8 - - - - - - - - -
30/06:30am 24.8 S 7 8 1017.5 - - - - - - - - -
30/06:00am 24.9 S 8 10 1017.4 - - - - - - - - -
30/05:30am 24.9 N 5 8 1017.0 - - - - - - - - -
30/05:00am 25.0 N 5 6 1016.7 - - - - - - - - -
30/04:30am 25.0 N 8 10 1016.5 - - - - - - - - -
30/04:00am 25.1 NNE 11 13 1016.6 - - - - - - - - -
30/03:30am 25.1 NE 15 17 1016.5 - - - - - - - - -
30/03:00am 25.3 ENE 15 17 1016.3 - - - - - - - - -
30/02:30am 25.1 E 13 16 1016.6 - - - - - - - - -
30/02:00am 24.7 E 14 19 1016.8 - - - - - - - - -
30/01:30am 25.7 E 11 13 1017.0 - - - - - - - - -
30/01:00am 25.6 E 11 12 1017.3 - - - - - - - - -
30/12:30am 24.3 ESE 19 22 1017.5 - - - - - - - - -
30/12:00am 25.3 ENE 14 16 1017.7 - - - - - - - - -
 
Date/Time
EST
Temp

°C
Wind Pressure Rain
since 9am
mm
Weather Cloud Vis
km
Sea
Height
m
Swell
Dir
 
Speed
knots
Gust
knots
hPa Trend Height
m
Period
s
Dir
29/11:30pm 25.6 E 14 16 1017.9 - - - - - - - - -
29/11:00pm 25.2 E 17 22 1018.3 - - - - - - - - -
29/10:30pm 25.4 E 16 19 1018.4 - - - - - - - - -
29/10:00pm 24.9 ENE 17 23 1018.6 - - - - - - - - -
29/09:30pm 26.2 E 15 17 1018.5 - - - - - - - - -
29/09:00pm 26.0 E 16 18 1018.3 - - - - - - - - -
29/08:30pm 25.6 E 12 13 1018.3 - - - - - - - - -
29/08:00pm 25.3 E 12 14 1018.3 - - - - - - - - -
29/07:30pm 25.7 E 16 24 1018.0 - - - - - - - - -
29/07:00pm 25.2 E 17 20 1017.6 - - - - - - - - -
29/06:30pm 26.2 E 17 19 1017.2 - - - - - - - - -
29/06:00pm 25.8 ENE 16 19 1017.1 - - - - - - - - -
29/05:30pm 26.2 E 19 21 1016.8 - - - - - - - - -
29/05:00pm 25.9 E 17 19 1016.4 - - - - - - - - -
29/04:30pm 25.9 E 17 19 1016.2 - - - - - - - - -
29/04:00pm 26.3 E 19 22 1015.9 - - - - - - - - -
29/03:30pm 26.4 ESE 19 22 1015.8 - - - - - - - - -
29/03:00pm 26.2 E 18 21 1015.8 - - - - - - - - -
29/02:30pm 26.6 ESE 17 19 1016.0 - - - - - - - - -
29/02:00pm 26.5 ESE 17 19 1016.2 - - - - - - - - -
29/01:30pm 26.7 E 16 18 1016.4 - - - - - - - - -
29/01:00pm 26.7 E 17 19 1016.4 - - - - - - - - -
29/12:30pm 26.9 E 17 20 1016.7 - - - - - - - - -
29/12:00pm 26.8 E 18 20 1017.2 - - - - - - - - -
29/11:30am 26.8 E 17 20 1017.7 - - - - - - - - -
29/11:00am 26.6 E 17 19 1018.3 - - - - - - - - -
29/10:30am 26.2 ESE 17 20 1018.9 - - - - - - - - -
29/10:00am 26.0 ESE 18 21 1019.2 - - - - - - - - -
29/09:30am 25.7 SE 18 21 1019.5 - - - - - - - - -
29/09:00am 25.9 ESE 17 20 1019.6 - - - - - - - - -
29/08:30am 26.0 ESE 18 22 1019.5 - - - - - - - - -
29/08:00am 26.0 ESE 19 22 1019.1 - - - - - - - - -
29/07:30am 25.9 ESE 18 23 1018.7 - - - - - - - - -

Other Formats:

Comma delimited format used in spreadsheet applications
http://www.bom.gov.au/fwo/IDQ60701/IDQ60701.94394.axf

JavaScript Object Notation format (JSON) in row-major order
http://www.bom.gov.au/fwo/IDQ60701/IDQ60701.94394.json